sensor_id;sensor_type;location;lat;lon;timestamp;P1;durP1;ratioP1;P2;durP2;ratioP2
47659;SDS011;33403;43.608;1.458;2023-06-14T00:00:39;6.68;;;4.45;;
47659;SDS011;33403;43.608;1.458;2023-06-14T00:03:08;6.82;;;4.80;;
47659;SDS011;33403;43.608;1.458;2023-06-14T00:05:35;5.65;;;4.40;;
47659;SDS011;33403;43.608;1.458;2023-06-14T00:08:08;7.70;;;4.97;;
47659;SDS011;33403;43.608;1.458;2023-06-14T00:10:38;6.28;;;4.20;;
47659;SDS011;33403;43.608;1.458;2023-06-14T00:13:06;5.20;;;4.38;;
47659;SDS011;33403;43.608;1.458;2023-06-14T00:15:33;6.53;;;5.10;;
47659;SDS011;33403;43.608;1.458;2023-06-14T00:17:59;6.15;;;4.60;;
47659;SDS011;33403;43.608;1.458;2023-06-14T00:20:29;5.40;;;4.63;;
47659;SDS011;33403;43.608;1.458;2023-06-14T00:22:57;4.88;;;4.20;;
47659;SDS011;33403;43.608;1.458;2023-06-14T00:25:26;5.15;;;4.65;;
47659;SDS011;33403;43.608;1.458;2023-06-14T00:27:52;5.57;;;4.60;;
47659;SDS011;33403;43.608;1.458;2023-06-14T00:30:19;5.88;;;5.10;;
47659;SDS011;33403;43.608;1.458;2023-06-14T00:32:45;5.93;;;4.75;;
47659;SDS011;33403;43.608;1.458;2023-06-14T00:35:11;5.68;;;4.93;;
47659;SDS011;33403;43.608;1.458;2023-06-14T00:37:38;5.55;;;5.05;;
47659;SDS011;33403;43.608;1.458;2023-06-14T00:40:04;6.50;;;5.25;;
47659;SDS011;33403;43.608;1.458;2023-06-14T00:42:31;7.00;;;5.22;;
47659;SDS011;33403;43.608;1.458;2023-06-14T00:44:57;9.75;;;6.28;;
47659;SDS011;33403;43.608;1.458;2023-06-14T00:47:23;8.48;;;5.47;;
47659;SDS011;33403;43.608;1.458;2023-06-14T00:49:51;6.75;;;5.20;;
47659;SDS011;33403;43.608;1.458;2023-06-14T00:52:18;6.57;;;5.28;;
47659;SDS011;33403;43.608;1.458;2023-06-14T00:54:45;7.20;;;5.30;;
47659;SDS011;33403;43.608;1.458;2023-06-14T00:57:12;5.97;;;5.22;;
47659;SDS011;33403;43.608;1.458;2023-06-14T00:59:44;8.38;;;5.97;;
47659;SDS011;33403;43.608;1.458;2023-06-14T01:02:11;7.95;;;5.80;;
47659;SDS011;33403;43.608;1.458;2023-06-14T01:04:38;9.15;;;6.40;;
47659;SDS011;33403;43.608;1.458;2023-06-14T01:12:35;7.47;;;6.60;;
47659;SDS011;33403;43.608;1.458;2023-06-14T01:15:17;8.23;;;6.75;;
47659;SDS011;33403;43.608;1.458;2023-06-14T01:17:45;11.73;;;7.38;;
47659;SDS011;33403;43.608;1.458;2023-06-14T01:20:12;7.68;;;6.60;;
47659;SDS011;33403;43.608;1.458;2023-06-14T01:22:48;8.13;;;7.10;;
47659;SDS011;33403;43.608;1.458;2023-06-14T01:25:23;9.63;;;7.40;;
47659;SDS011;33403;43.608;1.458;2023-06-14T01:27:50;12.32;;;7.35;;
47659;SDS011;33403;43.608;1.458;2023-06-14T01:30:27;10.30;;;7.53;;
47659;SDS011;33403;43.608;1.458;2023-06-14T01:32:55;12.35;;;7.97;;
47659;SDS011;33403;43.608;1.458;2023-06-14T01:35:22;10.05;;;8.40;;
47659;SDS011;33403;43.608;1.458;2023-06-14T01:37:48;10.73;;;8.45;;
47659;SDS011;33403;43.608;1.458;2023-06-14T01:40:15;12.30;;;8.65;;
47659;SDS011;33403;43.608;1.458;2023-06-14T01:42:42;12.60;;;8.38;;
47659;SDS011;33403;43.608;1.458;2023-06-14T01:45:09;12.05;;;8.40;;
47659;SDS011;33403;43.608;1.458;2023-06-14T01:47:36;14.73;;;8.98;;
47659;SDS011;33403;43.608;1.458;2023-06-14T01:50:03;12.00;;;8.77;;
47659;SDS011;33403;43.608;1.458;2023-06-14T01:52:29;11.50;;;8.70;;
47659;SDS011;33403;43.608;1.458;2023-06-14T01:54:55;10.60;;;8.77;;
47659;SDS011;33403;43.608;1.458;2023-06-14T01:57:21;11.30;;;8.45;;
47659;SDS011;33403;43.608;1.458;2023-06-14T01:59:47;13.85;;;8.75;;
47659;SDS011;33403;43.608;1.458;2023-06-14T02:02:13;13.00;;;8.63;;
47659;SDS011;33403;43.608;1.458;2023-06-14T02:04:40;11.25;;;8.50;;
47659;SDS011;33403;43.608;1.458;2023-06-14T02:07:06;10.05;;;8.68;;
47659;SDS011;33403;43.608;1.458;2023-06-14T02:09:33;10.18;;;8.52;;
47659;SDS011;33403;43.608;1.458;2023-06-14T02:11:59;14.90;;;9.07;;
47659;SDS011;33403;43.608;1.458;2023-06-14T02:14:24;9.02;;;8.05;;
47659;SDS011;33403;43.608;1.458;2023-06-14T02:16:51;11.98;;;8.13;;
47659;SDS011;33403;43.608;1.458;2023-06-14T02:19:18;10.35;;;8.05;;
47659;SDS011;33403;43.608;1.458;2023-06-14T02:21:45;11.82;;;8.60;;
47659;SDS011;33403;43.608;1.458;2023-06-14T02:24:11;13.35;;;9.40;;
47659;SDS011;33403;43.608;1.458;2023-06-14T02:26:37;13.38;;;8.30;;
47659;SDS011;33403;43.608;1.458;2023-06-14T02:29:08;10.43;;;8.18;;
47659;SDS011;33403;43.608;1.458;2023-06-14T02:31:36;10.02;;;8.32;;
47659;SDS011;33403;43.608;1.458;2023-06-14T02:34:02;9.88;;;8.30;;
47659;SDS011;33403;43.608;1.458;2023-06-14T02:36:27;9.85;;;8.13;;
47659;SDS011;33403;43.608;1.458;2023-06-14T02:38:56;13.25;;;8.57;;
47659;SDS011;33403;43.608;1.458;2023-06-14T02:41:25;11.90;;;8.68;;
47659;SDS011;33403;43.608;1.458;2023-06-14T02:43:52;10.70;;;9.02;;
47659;SDS011;33403;43.608;1.458;2023-06-14T02:46:18;10.02;;;8.30;;
47659;SDS011;33403;43.608;1.458;2023-06-14T02:48:44;14.10;;;8.55;;
47659;SDS011;33403;43.608;1.458;2023-06-14T02:51:10;11.15;;;8.32;;
47659;SDS011;33403;43.608;1.458;2023-06-14T02:53:35;11.10;;;8.10;;
47659;SDS011;33403;43.608;1.458;2023-06-14T02:56:02;11.43;;;8.52;;
47659;SDS011;33403;43.608;1.458;2023-06-14T02:58:29;10.10;;;7.82;;
47659;SDS011;33403;43.608;1.458;2023-06-14T03:00:55;10.23;;;8.50;;
47659;SDS011;33403;43.608;1.458;2023-06-14T03:03:21;14.70;;;8.30;;
47659;SDS011;33403;43.608;1.458;2023-06-14T03:05:49;12.48;;;8.73;;
47659;SDS011;33403;43.608;1.458;2023-06-14T03:08:16;10.40;;;7.82;;
47659;SDS011;33403;43.608;1.458;2023-06-14T03:10:47;10.48;;;7.47;;
47659;SDS011;33403;43.608;1.458;2023-06-14T03:13:14;11.77;;;7.85;;
47659;SDS011;33403;43.608;1.458;2023-06-14T03:15:46;11.07;;;8.25;;
47659;SDS011;33403;43.608;1.458;2023-06-14T03:18:12;10.95;;;7.32;;
47659;SDS011;33403;43.608;1.458;2023-06-14T03:20:40;9.15;;;7.85;;
47659;SDS011;33403;43.608;1.458;2023-06-14T03:23:06;9.00;;;7.35;;
47659;SDS011;33403;43.608;1.458;2023-06-14T03:25:32;11.10;;;7.90;;
47659;SDS011;33403;43.608;1.458;2023-06-14T03:28:00;10.25;;;7.85;;
47659;SDS011;33403;43.608;1.458;2023-06-14T03:30:26;11.70;;;7.88;;
47659;SDS011;33403;43.608;1.458;2023-06-14T03:32:52;11.25;;;8.00;;
47659;SDS011;33403;43.608;1.458;2023-06-14T03:35:18;11.82;;;7.07;;
47659;SDS011;33403;43.608;1.458;2023-06-14T03:37:44;9.30;;;7.82;;
47659;SDS011;33403;43.608;1.458;2023-06-14T03:40:11;10.73;;;7.82;;
47659;SDS011;33403;43.608;1.458;2023-06-14T03:42:38;9.40;;;8.07;;
47659;SDS011;33403;43.608;1.458;2023-06-14T03:45:04;10.93;;;8.02;;
47659;SDS011;33403;43.608;1.458;2023-06-14T03:47:31;11.93;;;7.70;;
47659;SDS011;33403;43.608;1.458;2023-06-14T03:49:57;10.55;;;8.20;;
47659;SDS011;33403;43.608;1.458;2023-06-14T03:52:23;11.45;;;7.97;;
47659;SDS011;33403;43.608;1.458;2023-06-14T03:54:48;10.20;;;8.07;;
47659;SDS011;33403;43.608;1.458;2023-06-14T03:57:14;11.93;;;8.70;;
47659;SDS011;33403;43.608;1.458;2023-06-14T03:59:40;9.35;;;8.35;;
47659;SDS011;33403;43.608;1.458;2023-06-14T04:02:06;11.77;;;8.38;;
47659;SDS011;33403;43.608;1.458;2023-06-14T04:04:34;11.80;;;8.73;;
47659;SDS011;33403;43.608;1.458;2023-06-14T04:07:00;12.13;;;8.85;;
47659;SDS011;33403;43.608;1.458;2023-06-14T04:09:28;11.98;;;9.20;;
47659;SDS011;33403;43.608;1.458;2023-06-14T04:11:54;10.60;;;8.70;;
47659;SDS011;33403;43.608;1.458;2023-06-14T04:14:21;11.85;;;9.40;;
47659;SDS011;33403;43.608;1.458;2023-06-14T04:16:47;11.57;;;9.13;;
47659;SDS011;33403;43.608;1.458;2023-06-14T04:19:13;11.60;;;9.82;;
47659;SDS011;33403;43.608;1.458;2023-06-14T04:21:40;14.40;;;9.32;;
47659;SDS011;33403;43.608;1.458;2023-06-14T04:24:06;12.20;;;9.50;;
47659;SDS011;33403;43.608;1.458;2023-06-14T04:26:31;14.85;;;10.45;;
47659;SDS011;33403;43.608;1.458;2023-06-14T04:28:58;13.38;;;10.02;;
47659;SDS011;33403;43.608;1.458;2023-06-14T04:31:30;15.65;;;11.05;;
47659;SDS011;33403;43.608;1.458;2023-06-14T04:33:58;15.05;;;10.95;;
47659;SDS011;33403;43.608;1.458;2023-06-14T04:36:25;15.18;;;11.18;;
47659;SDS011;33403;43.608;1.458;2023-06-14T04:38:53;18.08;;;12.57;;
47659;SDS011;33403;43.608;1.458;2023-06-14T04:41:21;14.73;;;11.40;;
47659;SDS011;33403;43.608;1.458;2023-06-14T04:43:48;17.50;;;11.85;;
47659;SDS011;33403;43.608;1.458;2023-06-14T04:46:14;19.00;;;12.23;;
47659;SDS011;33403;43.608;1.458;2023-06-14T04:48:40;16.23;;;12.38;;
47659;SDS011;33403;43.608;1.458;2023-06-14T04:51:08;16.40;;;12.73;;
47659;SDS011;33403;43.608;1.458;2023-06-14T04:53:34;19.42;;;13.45;;
47659;SDS011;33403;43.608;1.458;2023-06-14T04:56:00;21.20;;;13.10;;
47659;SDS011;33403;43.608;1.458;2023-06-14T04:58:26;17.58;;;12.85;;
47659;SDS011;33403;43.608;1.458;2023-06-14T05:00:53;19.08;;;13.43;;
47659;SDS011;33403;43.608;1.458;2023-06-14T05:03:21;19.08;;;13.75;;
47659;SDS011;33403;43.608;1.458;2023-06-14T05:05:49;19.83;;;13.60;;
47659;SDS011;33403;43.608;1.458;2023-06-14T05:08:15;21.42;;;14.27;;
47659;SDS011;33403;43.608;1.458;2023-06-14T05:10:41;18.17;;;13.32;;
47659;SDS011;33403;43.608;1.458;2023-06-14T05:13:07;20.40;;;14.10;;
47659;SDS011;33403;43.608;1.458;2023-06-14T05:15:32;20.90;;;14.63;;
47659;SDS011;33403;43.608;1.458;2023-06-14T05:17:59;22.30;;;14.40;;
47659;SDS011;33403;43.608;1.458;2023-06-14T05:20:25;22.02;;;14.32;;
47659;SDS011;33403;43.608;1.458;2023-06-14T05:22:54;23.95;;;15.27;;
47659;SDS011;33403;43.608;1.458;2023-06-14T05:25:21;21.40;;;14.43;;
47659;SDS011;33403;43.608;1.458;2023-06-14T05:27:48;23.33;;;14.80;;
47659;SDS011;33403;43.608;1.458;2023-06-14T05:30:14;23.38;;;15.35;;
47659;SDS011;33403;43.608;1.458;2023-06-14T05:32:40;23.45;;;15.60;;
47659;SDS011;33403;43.608;1.458;2023-06-14T05:35:06;21.55;;;14.73;;
47659;SDS011;33403;43.608;1.458;2023-06-14T05:37:33;26.10;;;16.35;;
47659;SDS011;33403;43.608;1.458;2023-06-14T05:39:58;23.60;;;15.50;;
47659;SDS011;33403;43.608;1.458;2023-06-14T05:42:24;20.58;;;14.57;;
47659;SDS011;33403;43.608;1.458;2023-06-14T05:44:50;27.30;;;15.85;;
47659;SDS011;33403;43.608;1.458;2023-06-14T05:47:15;20.77;;;15.27;;
47659;SDS011;33403;43.608;1.458;2023-06-14T05:49:41;21.05;;;15.60;;
47659;SDS011;33403;43.608;1.458;2023-06-14T05:52:07;20.45;;;15.30;;
47659;SDS011;33403;43.608;1.458;2023-06-14T05:54:33;22.67;;;16.00;;
47659;SDS011;33403;43.608;1.458;2023-06-14T05:56:59;22.75;;;15.75;;
47659;SDS011;33403;43.608;1.458;2023-06-14T05:59:26;22.83;;;15.70;;
47659;SDS011;33403;43.608;1.458;2023-06-14T06:01:52;22.85;;;15.55;;
47659;SDS011;33403;43.608;1.458;2023-06-14T06:04:18;22.02;;;15.90;;
47659;SDS011;33403;43.608;1.458;2023-06-14T06:06:44;23.33;;;16.58;;
47659;SDS011;33403;43.608;1.458;2023-06-14T06:09:10;21.95;;;15.55;;
47659;SDS011;33403;43.608;1.458;2023-06-14T06:11:36;27.33;;;17.25;;
47659;SDS011;33403;43.608;1.458;2023-06-14T06:14:01;22.05;;;16.60;;
47659;SDS011;33403;43.608;1.458;2023-06-14T06:16:27;21.42;;;16.30;;
47659;SDS011;33403;43.608;1.458;2023-06-14T06:18:53;23.05;;;16.70;;
47659;SDS011;33403;43.608;1.458;2023-06-14T06:21:18;22.15;;;15.77;;
47659;SDS011;33403;43.608;1.458;2023-06-14T06:23:44;25.00;;;16.95;;
47659;SDS011;33403;43.608;1.458;2023-06-14T06:26:10;23.33;;;16.65;;
47659;SDS011;33403;43.608;1.458;2023-06-14T06:28:35;22.17;;;15.75;;
47659;SDS011;33403;43.608;1.458;2023-06-14T06:31:01;22.20;;;16.17;;
47659;SDS011;33403;43.608;1.458;2023-06-14T06:33:28;22.45;;;16.25;;
47659;SDS011;33403;43.608;1.458;2023-06-14T06:35:53;23.95;;;15.88;;
47659;SDS011;33403;43.608;1.458;2023-06-14T06:38:19;20.38;;;15.52;;
47659;SDS011;33403;43.608;1.458;2023-06-14T06:40:45;21.58;;;15.70;;
47659;SDS011;33403;43.608;1.458;2023-06-14T06:43:10;20.00;;;15.55;;
47659;SDS011;33403;43.608;1.458;2023-06-14T06:45:39;21.33;;;15.95;;
47659;SDS011;33403;43.608;1.458;2023-06-14T06:48:05;21.63;;;15.75;;
47659;SDS011;33403;43.608;1.458;2023-06-14T06:50:30;22.05;;;15.75;;
47659;SDS011;33403;43.608;1.458;2023-06-14T06:52:56;22.88;;;15.40;;
47659;SDS011;33403;43.608;1.458;2023-06-14T06:55:22;20.88;;;14.93;;
47659;SDS011;33403;43.608;1.458;2023-06-14T06:57:48;21.42;;;15.85;;
47659;SDS011;33403;43.608;1.458;2023-06-14T07:00:15;20.45;;;14.93;;
47659;SDS011;33403;43.608;1.458;2023-06-14T07:02:42;19.42;;;14.77;;
47659;SDS011;33403;43.608;1.458;2023-06-14T07:05:08;24.35;;;15.57;;
47659;SDS011;33403;43.608;1.458;2023-06-14T07:07:34;18.60;;;14.23;;
47659;SDS011;33403;43.608;1.458;2023-06-14T07:10:00;19.65;;;14.40;;
47659;SDS011;33403;43.608;1.458;2023-06-14T07:12:28;21.20;;;15.15;;
47659;SDS011;33403;43.608;1.458;2023-06-14T07:14:55;21.27;;;15.35;;
47659;SDS011;33403;43.608;1.458;2023-06-14T07:17:20;19.00;;;14.57;;
47659;SDS011;33403;43.608;1.458;2023-06-14T07:19:46;22.02;;;15.10;;
47659;SDS011;33403;43.608;1.458;2023-06-14T07:22:11;20.35;;;14.48;;
47659;SDS011;33403;43.608;1.458;2023-06-14T07:24:37;22.38;;;14.90;;
47659;SDS011;33403;43.608;1.458;2023-06-14T07:27:05;23.38;;;15.30;;
47659;SDS011;33403;43.608;1.458;2023-06-14T07:29:31;22.23;;;14.70;;
47659;SDS011;33403;43.608;1.458;2023-06-14T07:31:56;19.85;;;14.75;;
47659;SDS011;33403;43.608;1.458;2023-06-14T07:34:22;20.30;;;14.52;;
47659;SDS011;33403;43.608;1.458;2023-06-14T07:36:48;20.95;;;14.23;;
47659;SDS011;33403;43.608;1.458;2023-06-14T07:39:13;18.92;;;14.48;;
47659;SDS011;33403;43.608;1.458;2023-06-14T07:41:39;19.63;;;14.25;;
47659;SDS011;33403;43.608;1.458;2023-06-14T07:44:05;19.45;;;14.70;;
47659;SDS011;33403;43.608;1.458;2023-06-14T07:46:30;21.73;;;14.85;;
47659;SDS011;33403;43.608;1.458;2023-06-14T07:48:56;20.58;;;14.43;;
47659;SDS011;33403;43.608;1.458;2023-06-14T07:51:22;19.63;;;14.88;;
47659;SDS011;33403;43.608;1.458;2023-06-14T07:53:48;20.35;;;14.70;;
47659;SDS011;33403;43.608;1.458;2023-06-14T07:56:14;21.58;;;14.23;;
47659;SDS011;33403;43.608;1.458;2023-06-14T07:58:40;17.70;;;13.98;;
47659;SDS011;33403;43.608;1.458;2023-06-14T08:01:06;18.33;;;14.77;;
47659;SDS011;33403;43.608;1.458;2023-06-14T08:03:33;20.83;;;14.10;;
47659;SDS011;33403;43.608;1.458;2023-06-14T08:05:59;18.27;;;14.55;;
47659;SDS011;33403;43.608;1.458;2023-06-14T08:08:26;19.50;;;14.35;;
47659;SDS011;33403;43.608;1.458;2023-06-14T08:10:51;18.33;;;14.50;;
47659;SDS011;33403;43.608;1.458;2023-06-14T08:13:17;18.02;;;13.75;;
47659;SDS011;33403;43.608;1.458;2023-06-14T08:15:43;17.52;;;13.88;;
47659;SDS011;33403;43.608;1.458;2023-06-14T08:18:10;19.20;;;13.85;;
47659;SDS011;33403;43.608;1.458;2023-06-14T08:20:36;19.00;;;13.90;;
47659;SDS011;33403;43.608;1.458;2023-06-14T08:23:02;19.00;;;13.55;;
47659;SDS011;33403;43.608;1.458;2023-06-14T08:25:29;19.17;;;13.90;;
47659;SDS011;33403;43.608;1.458;2023-06-14T08:27:55;18.73;;;13.57;;
47659;SDS011;33403;43.608;1.458;2023-06-14T08:30:21;17.98;;;13.23;;
47659;SDS011;33403;43.608;1.458;2023-06-14T08:32:47;19.98;;;13.95;;
47659;SDS011;33403;43.608;1.458;2023-06-14T08:35:13;17.77;;;14.13;;
47659;SDS011;33403;43.608;1.458;2023-06-14T08:37:42;20.58;;;13.60;;
47659;SDS011;33403;43.608;1.458;2023-06-14T08:40:18;20.25;;;13.27;;
47659;SDS011;33403;43.608;1.458;2023-06-14T08:42:51;20.10;;;14.43;;
47659;SDS011;33403;43.608;1.458;2023-06-14T08:45:19;16.17;;;12.73;;
47659;SDS011;33403;43.608;1.458;2023-06-14T08:47:48;20.40;;;13.82;;
47659;SDS011;33403;43.608;1.458;2023-06-14T08:50:22;16.48;;;12.88;;
47659;SDS011;33403;43.608;1.458;2023-06-14T08:52:55;21.60;;;13.48;;
47659;SDS011;33403;43.608;1.458;2023-06-14T08:55:25;16.23;;;11.82;;
47659;SDS011;33403;43.608;1.458;2023-06-14T08:57:55;18.55;;;13.73;;
47659;SDS011;33403;43.608;1.458;2023-06-14T09:00:23;20.83;;;12.55;;
47659;SDS011;33403;43.608;1.458;2023-06-14T09:02:52;15.05;;;12.07;;
47659;SDS011;33403;43.608;1.458;2023-06-14T09:05:26;14.98;;;11.68;;
47659;SDS011;33403;43.608;1.458;2023-06-14T09:07:52;15.65;;;12.25;;
47659;SDS011;33403;43.608;1.458;2023-06-14T09:10:21;16.95;;;12.43;;
47659;SDS011;33403;43.608;1.458;2023-06-14T09:12:47;16.85;;;11.77;;
47659;SDS011;33403;43.608;1.458;2023-06-14T09:15:13;17.55;;;12.40;;
47659;SDS011;33403;43.608;1.458;2023-06-14T09:17:39;16.20;;;11.88;;
47659;SDS011;33403;43.608;1.458;2023-06-14T09:20:06;15.02;;;11.73;;
47659;SDS011;33403;43.608;1.458;2023-06-14T09:22:35;18.65;;;12.50;;
47659;SDS011;33403;43.608;1.458;2023-06-14T09:25:02;15.77;;;11.88;;
47659;SDS011;33403;43.608;1.458;2023-06-14T09:27:28;13.38;;;11.18;;
47659;SDS011;33403;43.608;1.458;2023-06-14T09:29:55;17.25;;;12.13;;
47659;SDS011;33403;43.608;1.458;2023-06-14T09:32:21;15.00;;;11.68;;
47659;SDS011;33403;43.608;1.458;2023-06-14T09:34:47;16.02;;;11.57;;
47659;SDS011;33403;43.608;1.458;2023-06-14T09:37:13;18.17;;;11.82;;
47659;SDS011;33403;43.608;1.458;2023-06-14T09:39:51;15.68;;;10.35;;
47659;SDS011;33403;43.608;1.458;2023-06-14T09:42:17;14.18;;;11.35;;
47659;SDS011;33403;43.608;1.458;2023-06-14T09:44:45;16.02;;;11.82;;
47659;SDS011;33403;43.608;1.458;2023-06-14T09:47:16;16.15;;;11.13;;
47659;SDS011;33403;43.608;1.458;2023-06-14T09:49:42;17.38;;;11.55;;
47659;SDS011;33403;43.608;1.458;2023-06-14T09:52:13;15.75;;;11.63;;
47659;SDS011;33403;43.608;1.458;2023-06-14T09:54:41;14.80;;;10.82;;
47659;SDS011;33403;43.608;1.458;2023-06-14T09:57:10;15.50;;;11.15;;
47659;SDS011;33403;43.608;1.458;2023-06-14T09:59:36;14.68;;;11.15;;
47659;SDS011;33403;43.608;1.458;2023-06-14T10:02:29;15.88;;;11.20;;
47659;SDS011;33403;43.608;1.458;2023-06-14T10:05:02;15.80;;;11.10;;
47659;SDS011;33403;43.608;1.458;2023-06-14T10:07:30;13.48;;;10.20;;
47659;SDS011;33403;43.608;1.458;2023-06-14T10:10:05;16.08;;;11.05;;
47659;SDS011;33403;43.608;1.458;2023-06-14T10:12:31;13.07;;;10.68;;
47659;SDS011;33403;43.608;1.458;2023-06-14T10:14:57;12.45;;;10.38;;
47659;SDS011;33403;43.608;1.458;2023-06-14T10:17:40;11.68;;;10.48;;
47659;SDS011;33403;43.608;1.458;2023-06-14T10:23:16;13.48;;;10.63;;
47659;SDS011;33403;43.608;1.458;2023-06-14T10:25:45;16.55;;;11.18;;
47659;SDS011;33403;43.608;1.458;2023-06-14T10:28:18;13.70;;;10.88;;
47659;SDS011;33403;43.608;1.458;2023-06-14T10:33:36;13.05;;;10.13;;
47659;SDS011;33403;43.608;1.458;2023-06-14T10:36:27;14.35;;;10.93;;
47659;SDS011;33403;43.608;1.458;2023-06-14T10:39:06;12.40;;;10.68;;
47659;SDS011;33403;43.608;1.458;2023-06-14T10:41:36;16.20;;;10.75;;
47659;SDS011;33403;43.608;1.458;2023-06-14T10:46:38;13.25;;;11.32;;
47659;SDS011;33403;43.608;1.458;2023-06-14T10:49:05;13.68;;;10.20;;
47659;SDS011;33403;43.608;1.458;2023-06-14T10:51:41;15.45;;;10.85;;
47659;SDS011;33403;43.608;1.458;2023-06-14T10:54:11;14.77;;;9.90;;
47659;SDS011;33403;43.608;1.458;2023-06-14T10:59:12;14.60;;;10.23;;
47659;SDS011;33403;43.608;1.458;2023-06-14T11:01:46;14.57;;;10.57;;
47659;SDS011;33403;43.608;1.458;2023-06-14T11:10:39;13.63;;;10.30;;
47659;SDS011;33403;43.608;1.458;2023-06-14T11:13:10;14.43;;;10.30;;
47659;SDS011;33403;43.608;1.458;2023-06-14T11:15:36;11.75;;;9.73;;
47659;SDS011;33403;43.608;1.458;2023-06-14T11:18:06;13.23;;;9.68;;
47659;SDS011;33403;43.608;1.458;2023-06-14T11:20:34;13.30;;;10.10;;
47659;SDS011;33403;43.608;1.458;2023-06-14T11:23:01;11.60;;;9.77;;
47659;SDS011;33403;43.608;1.458;2023-06-14T11:25:27;13.55;;;10.27;;
47659;SDS011;33403;43.608;1.458;2023-06-14T11:27:53;13.98;;;10.10;;
47659;SDS011;33403;43.608;1.458;2023-06-14T11:30:20;11.95;;;9.80;;
47659;SDS011;33403;43.608;1.458;2023-06-14T11:32:47;11.02;;;9.68;;
47659;SDS011;33403;43.608;1.458;2023-06-14T11:35:14;13.05;;;9.90;;
47659;SDS011;33403;43.608;1.458;2023-06-14T11:37:40;17.00;;;10.73;;
47659;SDS011;33403;43.608;1.458;2023-06-14T11:40:07;16.98;;;10.27;;
47659;SDS011;33403;43.608;1.458;2023-06-14T11:42:34;12.82;;;10.27;;
47659;SDS011;33403;43.608;1.458;2023-06-14T11:45:01;14.75;;;10.25;;
47659;SDS011;33403;43.608;1.458;2023-06-14T11:47:34;14.77;;;10.30;;
47659;SDS011;33403;43.608;1.458;2023-06-14T11:50:00;17.92;;;10.68;;
47659;SDS011;33403;43.608;1.458;2023-06-14T11:52:26;13.85;;;10.50;;
47659;SDS011;33403;43.608;1.458;2023-06-14T11:54:52;18.15;;;10.13;;
47659;SDS011;33403;43.608;1.458;2023-06-14T11:57:19;13.60;;;10.20;;
47659;SDS011;33403;43.608;1.458;2023-06-14T11:59:45;15.10;;;9.93;;
47659;SDS011;33403;43.608;1.458;2023-06-14T12:02:18;14.10;;;10.45;;
47659;SDS011;33403;43.608;1.458;2023-06-14T12:04:46;14.15;;;10.32;;
47659;SDS011;33403;43.608;1.458;2023-06-14T12:07:16;15.02;;;10.40;;
47659;SDS011;33403;43.608;1.458;2023-06-14T12:12:23;16.33;;;10.75;;
47659;SDS011;33403;43.608;1.458;2023-06-14T12:14:53;15.40;;;10.35;;
47659;SDS011;33403;43.608;1.458;2023-06-14T12:17:21;15.57;;;10.45;;
47659;SDS011;33403;43.608;1.458;2023-06-14T12:19:48;13.32;;;9.50;;
47659;SDS011;33403;43.608;1.458;2023-06-14T12:22:15;13.00;;;10.05;;
47659;SDS011;33403;43.608;1.458;2023-06-14T12:24:44;14.68;;;10.75;;
47659;SDS011;33403;43.608;1.458;2023-06-14T12:27:10;13.38;;;10.07;;
47659;SDS011;33403;43.608;1.458;2023-06-14T12:29:43;14.60;;;10.88;;
47659;SDS011;33403;43.608;1.458;2023-06-14T12:32:09;12.13;;;9.75;;
47659;SDS011;33403;43.608;1.458;2023-06-14T12:34:35;14.48;;;10.77;;
47659;SDS011;33403;43.608;1.458;2023-06-14T12:37:01;22.92;;;10.68;;
47659;SDS011;33403;43.608;1.458;2023-06-14T12:39:29;17.48;;;10.23;;
47659;SDS011;33403;43.608;1.458;2023-06-14T12:41:56;15.73;;;10.35;;
47659;SDS011;33403;43.608;1.458;2023-06-14T12:44:22;13.73;;;11.00;;
47659;SDS011;33403;43.608;1.458;2023-06-14T12:46:48;14.00;;;10.20;;
47659;SDS011;33403;43.608;1.458;2023-06-14T12:49:16;14.20;;;10.63;;
47659;SDS011;33403;43.608;1.458;2023-06-14T12:51:42;12.70;;;9.85;;
47659;SDS011;33403;43.608;1.458;2023-06-14T12:54:08;13.25;;;10.20;;
47659;SDS011;33403;43.608;1.458;2023-06-14T12:56:33;15.48;;;10.50;;
47659;SDS011;33403;43.608;1.458;2023-06-14T12:58:59;15.05;;;10.30;;
47659;SDS011;33403;43.608;1.458;2023-06-14T13:01:25;12.55;;;9.48;;
47659;SDS011;33403;43.608;1.458;2023-06-14T13:03:51;12.10;;;9.57;;
47659;SDS011;33403;43.608;1.458;2023-06-14T13:06:20;11.93;;;10.20;;
47659;SDS011;33403;43.608;1.458;2023-06-14T13:08:47;16.83;;;10.50;;
47659;SDS011;33403;43.608;1.458;2023-06-14T13:11:13;11.63;;;10.18;;
47659;SDS011;33403;43.608;1.458;2023-06-14T13:13:39;14.82;;;9.85;;
47659;SDS011;33403;43.608;1.458;2023-06-14T13:16:05;12.65;;;9.80;;
47659;SDS011;33403;43.608;1.458;2023-06-14T13:18:30;12.90;;;9.75;;
47659;SDS011;33403;43.608;1.458;2023-06-14T13:20:56;15.07;;;10.07;;
47659;SDS011;33403;43.608;1.458;2023-06-14T13:23:22;13.52;;;10.35;;
47659;SDS011;33403;43.608;1.458;2023-06-14T13:25:47;12.13;;;9.73;;
47659;SDS011;33403;43.608;1.458;2023-06-14T13:28:16;13.48;;;10.18;;
47659;SDS011;33403;43.608;1.458;2023-06-14T13:30:41;12.40;;;10.65;;
47659;SDS011;33403;43.608;1.458;2023-06-14T13:33:07;12.68;;;10.27;;
47659;SDS011;33403;43.608;1.458;2023-06-14T13:35:33;14.80;;;10.15;;
47659;SDS011;33403;43.608;1.458;2023-06-14T13:37:58;10.70;;;9.48;;
47659;SDS011;33403;43.608;1.458;2023-06-14T13:40:24;12.77;;;9.32;;
47659;SDS011;33403;43.608;1.458;2023-06-14T13:42:50;13.43;;;9.65;;
47659;SDS011;33403;43.608;1.458;2023-06-14T13:45:15;13.68;;;10.68;;
47659;SDS011;33403;43.608;1.458;2023-06-14T13:47:41;15.00;;;10.23;;
47659;SDS011;33403;43.608;1.458;2023-06-14T13:50:07;12.88;;;9.73;;
47659;SDS011;33403;43.608;1.458;2023-06-14T13:52:33;14.40;;;10.90;;
47659;SDS011;33403;43.608;1.458;2023-06-14T13:54:59;15.13;;;10.55;;
47659;SDS011;33403;43.608;1.458;2023-06-14T13:57:25;12.00;;;10.07;;
47659;SDS011;33403;43.608;1.458;2023-06-14T13:59:51;13.45;;;10.10;;
47659;SDS011;33403;43.608;1.458;2023-06-14T14:02:20;11.50;;;10.30;;
47659;SDS011;33403;43.608;1.458;2023-06-14T14:04:46;13.18;;;9.75;;
47659;SDS011;33403;43.608;1.458;2023-06-14T14:07:17;15.73;;;10.23;;
47659;SDS011;33403;43.608;1.458;2023-06-14T14:09:44;14.25;;;9.77;;
47659;SDS011;33403;43.608;1.458;2023-06-14T14:12:09;12.30;;;9.77;;
47659;SDS011;33403;43.608;1.458;2023-06-14T14:14:36;14.43;;;10.27;;
47659;SDS011;33403;43.608;1.458;2023-06-14T14:17:02;12.32;;;10.00;;
47659;SDS011;33403;43.608;1.458;2023-06-14T14:19:29;13.95;;;10.05;;
47659;SDS011;33403;43.608;1.458;2023-06-14T14:21:54;15.10;;;10.75;;
47659;SDS011;33403;43.608;1.458;2023-06-14T14:24:20;13.90;;;9.98;;
47659;SDS011;33403;43.608;1.458;2023-06-14T14:26:46;12.43;;;9.88;;
47659;SDS011;33403;43.608;1.458;2023-06-14T14:29:15;14.88;;;10.70;;
47659;SDS011;33403;43.608;1.458;2023-06-14T14:31:41;13.48;;;10.20;;
47659;SDS011;33403;43.608;1.458;2023-06-14T14:34:07;13.63;;;10.15;;
47659;SDS011;33403;43.608;1.458;2023-06-14T14:36:33;14.70;;;10.32;;
47659;SDS011;33403;43.608;1.458;2023-06-14T14:39:01;18.63;;;11.10;;
47659;SDS011;33403;43.608;1.458;2023-06-14T14:41:27;15.30;;;10.60;;
47659;SDS011;33403;43.608;1.458;2023-06-14T14:43:53;17.08;;;10.30;;
47659;SDS011;33403;43.608;1.458;2023-06-14T14:46:18;11.55;;;9.68;;
47659;SDS011;33403;43.608;1.458;2023-06-14T14:48:44;13.82;;;10.25;;
47659;SDS011;33403;43.608;1.458;2023-06-14T14:51:10;14.85;;;10.20;;
47659;SDS011;33403;43.608;1.458;2023-06-14T14:53:36;14.38;;;10.48;;